sensor_id;sensor_type;location;lat;lon;timestamp;P1;durP1;ratioP1;P2;durP2;ratioP2
7338;SDS011;33747;49.524;8.390;2023-04-03T00:00:43;2.72;;;1.85;;
7338;SDS011;33747;49.524;8.390;2023-04-03T00:03:09;8.50;;;2.03;;
7338;SDS011;33747;49.524;8.390;2023-04-03T00:05:35;2.35;;;1.80;;
7338;SDS011;33747;49.524;8.390;2023-04-03T00:08:00;1.67;;;1.58;;
7338;SDS011;33747;49.524;8.390;2023-04-03T00:10:27;4.93;;;2.03;;
7338;SDS011;33747;49.524;8.390;2023-04-03T00:12:52;4.47;;;1.73;;
7338;SDS011;33747;49.524;8.390;2023-04-03T00:15:17;7.30;;;1.85;;
7338;SDS011;33747;49.524;8.390;2023-04-03T00:17:43;3.10;;;1.98;;
7338;SDS011;33747;49.524;8.390;2023-04-03T00:20:08;3.60;;;1.83;;
7338;SDS011;33747;49.524;8.390;2023-04-03T00:22:34;4.88;;;2.00;;
7338;SDS011;33747;49.524;8.390;2023-04-03T00:25:00;3.78;;;2.00;;
7338;SDS011;33747;49.524;8.390;2023-04-03T00:27:25;1.85;;;1.52;;
7338;SDS011;33747;49.524;8.390;2023-04-03T00:29:51;8.30;;;2.00;;
7338;SDS011;33747;49.524;8.390;2023-04-03T00:32:16;5.03;;;2.00;;
7338;SDS011;33747;49.524;8.390;2023-04-03T00:34:41;6.65;;;2.00;;
7338;SDS011;33747;49.524;8.390;2023-04-03T00:37:07;6.30;;;2.25;;
7338;SDS011;33747;49.524;8.390;2023-04-03T00:39:32;1.60;;;1.50;;
7338;SDS011;33747;49.524;8.390;2023-04-03T00:41:57;8.05;;;2.38;;
7338;SDS011;33747;49.524;8.390;2023-04-03T00:46:57;3.67;;;2.03;;
7338;SDS011;33747;49.524;8.390;2023-04-03T00:49:22;6.10;;;2.30;;
7338;SDS011;33747;49.524;8.390;2023-04-03T00:51:48;6.20;;;2.55;;
7338;SDS011;33747;49.524;8.390;2023-04-03T00:54:13;5.50;;;2.70;;
7338;SDS011;33747;49.524;8.390;2023-04-03T00:56:39;5.28;;;2.50;;
7338;SDS011;33747;49.524;8.390;2023-04-03T00:59:08;4.82;;;2.38;;
7338;SDS011;33747;49.524;8.390;2023-04-03T01:01:36;2.85;;;2.13;;
7338;SDS011;33747;49.524;8.390;2023-04-03T01:04:03;3.63;;;2.38;;
7338;SDS011;33747;49.524;8.390;2023-04-03T01:06:32;5.68;;;2.90;;
7338;SDS011;33747;49.524;8.390;2023-04-03T01:08:59;8.55;;;2.80;;
7338;SDS011;33747;49.524;8.390;2023-04-03T01:11:25;3.22;;;2.72;;
7338;SDS011;33747;49.524;8.390;2023-04-03T01:13:51;4.47;;;2.92;;
7338;SDS011;33747;49.524;8.390;2023-04-03T01:16:16;5.45;;;3.40;;
7338;SDS011;33747;49.524;8.390;2023-04-03T01:18:42;3.05;;;2.60;;
7338;SDS011;33747;49.524;8.390;2023-04-03T01:23:58;4.82;;;3.17;;
7338;SDS011;33747;49.524;8.390;2023-04-03T01:26:29;5.03;;;2.72;;
7338;SDS011;33747;49.524;8.390;2023-04-03T01:28:54;7.53;;;2.60;;
7338;SDS011;33747;49.524;8.390;2023-04-03T01:31:25;4.03;;;2.30;;
7338;SDS011;33747;49.524;8.390;2023-04-03T01:33:52;3.92;;;2.78;;
7338;SDS011;33747;49.524;8.390;2023-04-03T01:36:19;7.13;;;2.83;;
7338;SDS011;33747;49.524;8.390;2023-04-03T01:38:46;3.75;;;2.67;;
7338;SDS011;33747;49.524;8.390;2023-04-03T01:41:12;4.82;;;2.80;;
7338;SDS011;33747;49.524;8.390;2023-04-03T01:43:37;2.97;;;2.58;;
7338;SDS011;33747;49.524;8.390;2023-04-03T01:46:03;3.13;;;2.88;;
7338;SDS011;33747;49.524;8.390;2023-04-03T01:48:28;3.58;;;2.45;;
7338;SDS011;33747;49.524;8.390;2023-04-03T01:50:54;3.40;;;2.38;;
7338;SDS011;33747;49.524;8.390;2023-04-03T01:53:19;3.70;;;2.88;;
7338;SDS011;33747;49.524;8.390;2023-04-03T01:55:44;3.30;;;3.00;;
7338;SDS011;33747;49.524;8.390;2023-04-03T01:58:10;6.53;;;3.00;;
7338;SDS011;33747;49.524;8.390;2023-04-03T02:00:35;11.38;;;2.85;;
7338;SDS011;33747;49.524;8.390;2023-04-03T02:03:01;5.65;;;3.13;;
7338;SDS011;33747;49.524;8.390;2023-04-03T02:05:27;5.72;;;3.00;;
7338;SDS011;33747;49.524;8.390;2023-04-03T02:07:52;6.90;;;2.80;;
7338;SDS011;33747;49.524;8.390;2023-04-03T02:10:18;5.05;;;2.75;;
7338;SDS011;33747;49.524;8.390;2023-04-03T02:12:43;3.88;;;2.63;;
7338;SDS011;33747;49.524;8.390;2023-04-03T02:15:09;5.68;;;2.70;;
7338;SDS011;33747;49.524;8.390;2023-04-03T02:17:34;3.72;;;2.72;;
7338;SDS011;33747;49.524;8.390;2023-04-03T02:20:00;3.92;;;2.72;;
7338;SDS011;33747;49.524;8.390;2023-04-03T02:22:26;4.57;;;3.05;;
7338;SDS011;33747;49.524;8.390;2023-04-03T02:24:51;5.63;;;2.88;;
7338;SDS011;33747;49.524;8.390;2023-04-03T02:27:17;4.28;;;2.92;;
7338;SDS011;33747;49.524;8.390;2023-04-03T02:29:42;4.88;;;2.97;;
7338;SDS011;33747;49.524;8.390;2023-04-03T02:32:07;3.80;;;3.00;;
7338;SDS011;33747;49.524;8.390;2023-04-03T02:34:33;4.85;;;3.22;;
7338;SDS011;33747;49.524;8.390;2023-04-03T02:36:58;3.63;;;2.75;;
7338;SDS011;33747;49.524;8.390;2023-04-03T02:39:24;4.95;;;3.08;;
7338;SDS011;33747;49.524;8.390;2023-04-03T02:41:49;4.65;;;2.83;;
7338;SDS011;33747;49.524;8.390;2023-04-03T02:44:15;2.85;;;2.17;;
7338;SDS011;33747;49.524;8.390;2023-04-03T02:46:40;5.88;;;2.33;;
7338;SDS011;33747;49.524;8.390;2023-04-03T02:49:06;5.97;;;2.63;;
7338;SDS011;33747;49.524;8.390;2023-04-03T02:51:31;3.38;;;2.50;;
7338;SDS011;33747;49.524;8.390;2023-04-03T02:53:57;4.25;;;2.30;;
7338;SDS011;33747;49.524;8.390;2023-04-03T02:56:22;4.47;;;2.28;;
7338;SDS011;33747;49.524;8.390;2023-04-03T02:58:47;6.72;;;2.80;;
7338;SDS011;33747;49.524;8.390;2023-04-03T03:01:13;5.72;;;2.90;;
7338;SDS011;33747;49.524;8.390;2023-04-03T03:03:39;3.15;;;2.55;;
7338;SDS011;33747;49.524;8.390;2023-04-03T03:06:06;3.40;;;2.50;;
7338;SDS011;33747;49.524;8.390;2023-04-03T03:08:33;5.43;;;2.33;;
7338;SDS011;33747;49.524;8.390;2023-04-03T03:10:59;4.70;;;2.83;;
7338;SDS011;33747;49.524;8.390;2023-04-03T03:13:24;3.47;;;2.25;;
7338;SDS011;33747;49.524;8.390;2023-04-03T03:15:50;2.83;;;2.30;;
7338;SDS011;33747;49.524;8.390;2023-04-03T03:18:15;4.95;;;2.30;;
7338;SDS011;33747;49.524;8.390;2023-04-03T03:20:40;4.28;;;2.47;;
7338;SDS011;33747;49.524;8.390;2023-04-03T03:23:06;5.07;;;2.58;;
7338;SDS011;33747;49.524;8.390;2023-04-03T03:25:31;3.42;;;2.63;;
7338;SDS011;33747;49.524;8.390;2023-04-03T03:27:57;6.55;;;2.83;;
7338;SDS011;33747;49.524;8.390;2023-04-03T03:30:22;5.40;;;2.38;;
7338;SDS011;33747;49.524;8.390;2023-04-03T03:32:47;2.97;;;2.47;;
7338;SDS011;33747;49.524;8.390;2023-04-03T03:35:13;3.78;;;2.33;;
7338;SDS011;33747;49.524;8.390;2023-04-03T03:37:38;5.80;;;2.42;;
7338;SDS011;33747;49.524;8.390;2023-04-03T03:40:04;3.95;;;2.90;;
7338;SDS011;33747;49.524;8.390;2023-04-03T03:42:30;8.85;;;2.70;;
7338;SDS011;33747;49.524;8.390;2023-04-03T03:44:55;2.75;;;2.15;;
7338;SDS011;33747;49.524;8.390;2023-04-03T03:47:20;3.10;;;2.75;;
7338;SDS011;33747;49.524;8.390;2023-04-03T03:49:46;4.32;;;2.42;;
7338;SDS011;33747;49.524;8.390;2023-04-03T03:52:11;5.38;;;2.83;;
7338;SDS011;33747;49.524;8.390;2023-04-03T03:54:37;6.68;;;2.78;;
7338;SDS011;33747;49.524;8.390;2023-04-03T03:57:03;3.13;;;2.85;;
7338;SDS011;33747;49.524;8.390;2023-04-03T03:59:28;4.63;;;2.28;;
7338;SDS011;33747;49.524;8.390;2023-04-03T04:01:54;3.95;;;2.20;;
7338;SDS011;33747;49.524;8.390;2023-04-03T04:04:19;7.35;;;2.75;;
7338;SDS011;33747;49.524;8.390;2023-04-03T04:06:45;2.63;;;2.15;;
7338;SDS011;33747;49.524;8.390;2023-04-03T04:09:11;5.28;;;2.70;;
7338;SDS011;33747;49.524;8.390;2023-04-03T04:11:37;5.47;;;2.33;;
7338;SDS011;33747;49.524;8.390;2023-04-03T04:14:04;4.55;;;2.65;;
7338;SDS011;33747;49.524;8.390;2023-04-03T04:16:30;4.25;;;2.80;;
7338;SDS011;33747;49.524;8.390;2023-04-03T04:18:55;3.70;;;2.72;;
7338;SDS011;33747;49.524;8.390;2023-04-03T04:21:20;3.63;;;2.30;;
7338;SDS011;33747;49.524;8.390;2023-04-03T04:23:46;4.35;;;2.72;;
7338;SDS011;33747;49.524;8.390;2023-04-03T04:26:11;7.22;;;2.65;;
7338;SDS011;33747;49.524;8.390;2023-04-03T04:28:37;5.85;;;2.90;;
7338;SDS011;33747;49.524;8.390;2023-04-03T04:31:02;4.15;;;2.63;;
7338;SDS011;33747;49.524;8.390;2023-04-03T04:33:27;9.20;;;3.33;;
7338;SDS011;33747;49.524;8.390;2023-04-03T04:35:53;6.57;;;2.45;;
7338;SDS011;33747;49.524;8.390;2023-04-03T04:38:18;5.68;;;2.83;;
7338;SDS011;33747;49.524;8.390;2023-04-03T04:40:43;3.22;;;2.92;;
7338;SDS011;33747;49.524;8.390;2023-04-03T04:43:09;7.90;;;2.50;;
7338;SDS011;33747;49.524;8.390;2023-04-03T04:45:39;4.05;;;2.83;;
7338;SDS011;33747;49.524;8.390;2023-04-03T04:48:04;5.88;;;2.75;;
7338;SDS011;33747;49.524;8.390;2023-04-03T04:50:30;3.10;;;2.60;;
7338;SDS011;33747;49.524;8.390;2023-04-03T04:52:55;2.95;;;2.47;;
7338;SDS011;33747;49.524;8.390;2023-04-03T04:55:21;4.90;;;2.60;;
7338;SDS011;33747;49.524;8.390;2023-04-03T04:57:46;4.97;;;2.88;;
7338;SDS011;33747;49.524;8.390;2023-04-03T05:00:11;4.45;;;2.92;;
7338;SDS011;33747;49.524;8.390;2023-04-03T05:02:38;3.38;;;2.65;;
7338;SDS011;33747;49.524;8.390;2023-04-03T05:05:03;3.92;;;3.05;;
7338;SDS011;33747;49.524;8.390;2023-04-03T05:07:29;6.57;;;2.92;;
7338;SDS011;33747;49.524;8.390;2023-04-03T05:09:54;9.40;;;3.20;;
7338;SDS011;33747;49.524;8.390;2023-04-03T05:12:19;3.42;;;2.42;;
7338;SDS011;33747;49.524;8.390;2023-04-03T05:14:45;4.75;;;2.67;;
7338;SDS011;33747;49.524;8.390;2023-04-03T05:17:10;4.28;;;3.05;;
7338;SDS011;33747;49.524;8.390;2023-04-03T05:19:36;3.97;;;3.03;;
7338;SDS011;33747;49.524;8.390;2023-04-03T05:22:01;7.10;;;3.28;;
7338;SDS011;33747;49.524;8.390;2023-04-03T05:24:27;6.43;;;2.83;;
7338;SDS011;33747;49.524;8.390;2023-04-03T05:26:52;4.75;;;2.85;;
7338;SDS011;33747;49.524;8.390;2023-04-03T05:29:18;6.07;;;3.17;;
7338;SDS011;33747;49.524;8.390;2023-04-03T05:31:43;7.18;;;2.97;;
7338;SDS011;33747;49.524;8.390;2023-04-03T05:34:09;3.42;;;2.47;;
7338;SDS011;33747;49.524;8.390;2023-04-03T05:36:34;7.47;;;3.03;;
7338;SDS011;33747;49.524;8.390;2023-04-03T05:39:00;5.97;;;2.65;;
7338;SDS011;33747;49.524;8.390;2023-04-03T05:41:25;7.10;;;3.38;;
7338;SDS011;33747;49.524;8.390;2023-04-03T05:43:50;3.50;;;3.10;;
7338;SDS011;33747;49.524;8.390;2023-04-03T05:46:17;8.60;;;3.45;;
7338;SDS011;33747;49.524;8.390;2023-04-03T05:48:43;4.20;;;2.47;;
7338;SDS011;33747;49.524;8.390;2023-04-03T05:51:13;4.05;;;2.90;;
7338;SDS011;33747;49.524;8.390;2023-04-03T05:53:40;4.20;;;2.38;;
7338;SDS011;33747;49.524;8.390;2023-04-03T05:56:06;4.43;;;2.60;;
7338;SDS011;33747;49.524;8.390;2023-04-03T05:58:31;7.10;;;2.90;;
7338;SDS011;33747;49.524;8.390;2023-04-03T06:00:57;5.50;;;2.67;;
7338;SDS011;33747;49.524;8.390;2023-04-03T06:03:22;8.63;;;3.10;;
7338;SDS011;33747;49.524;8.390;2023-04-03T06:05:47;9.68;;;2.30;;
7338;SDS011;33747;49.524;8.390;2023-04-03T06:08:13;6.80;;;2.65;;
7338;SDS011;33747;49.524;8.390;2023-04-03T06:10:39;4.15;;;2.03;;
7338;SDS011;33747;49.524;8.390;2023-04-03T06:13:05;8.05;;;2.65;;
7338;SDS011;33747;49.524;8.390;2023-04-03T06:15:31;3.78;;;2.45;;
7338;SDS011;33747;49.524;8.390;2023-04-03T06:17:56;5.72;;;2.65;;
7338;SDS011;33747;49.524;8.390;2023-04-03T06:20:22;4.03;;;2.42;;
7338;SDS011;33747;49.524;8.390;2023-04-03T06:22:47;5.65;;;2.67;;
7338;SDS011;33747;49.524;8.390;2023-04-03T06:25:13;5.30;;;2.10;;
7338;SDS011;33747;49.524;8.390;2023-04-03T06:27:38;4.10;;;2.60;;
7338;SDS011;33747;49.524;8.390;2023-04-03T06:30:04;3.25;;;2.40;;
7338;SDS011;33747;49.524;8.390;2023-04-03T06:32:31;5.40;;;2.50;;
7338;SDS011;33747;49.524;8.390;2023-04-03T06:34:56;4.90;;;2.90;;
7338;SDS011;33747;49.524;8.390;2023-04-03T06:37:22;5.80;;;2.22;;
7338;SDS011;33747;49.524;8.390;2023-04-03T06:39:48;8.38;;;2.47;;
7338;SDS011;33747;49.524;8.390;2023-04-03T06:42:13;7.45;;;1.73;;
7338;SDS011;33747;49.524;8.390;2023-04-03T06:44:38;5.10;;;2.10;;
7338;SDS011;33747;49.524;8.390;2023-04-03T06:47:04;8.02;;;2.30;;
7338;SDS011;33747;49.524;8.390;2023-04-03T06:49:30;8.32;;;2.50;;
7338;SDS011;33747;49.524;8.390;2023-04-03T06:51:56;4.03;;;2.25;;
7338;SDS011;33747;49.524;8.390;2023-04-03T06:54:22;4.78;;;2.25;;
7338;SDS011;33747;49.524;8.390;2023-04-03T06:56:47;5.00;;;2.72;;
7338;SDS011;33747;49.524;8.390;2023-04-03T06:59:13;5.63;;;2.60;;
7338;SDS011;33747;49.524;8.390;2023-04-03T07:01:39;2.78;;;2.00;;
7338;SDS011;33747;49.524;8.390;2023-04-03T07:04:05;4.57;;;2.47;;
7338;SDS011;33747;49.524;8.390;2023-04-03T07:06:31;6.22;;;2.97;;
7338;SDS011;33747;49.524;8.390;2023-04-03T07:08:58;3.95;;;2.40;;
7338;SDS011;33747;49.524;8.390;2023-04-03T07:11:23;4.40;;;2.58;;
7338;SDS011;33747;49.524;8.390;2023-04-03T07:13:49;5.35;;;2.72;;
7338;SDS011;33747;49.524;8.390;2023-04-03T07:16:15;6.03;;;2.30;;
7338;SDS011;33747;49.524;8.390;2023-04-03T07:18:40;7.40;;;2.78;;
7338;SDS011;33747;49.524;8.390;2023-04-03T07:21:06;4.70;;;2.55;;
7338;SDS011;33747;49.524;8.390;2023-04-03T07:23:32;3.28;;;2.50;;
7338;SDS011;33747;49.524;8.390;2023-04-03T07:25:58;6.25;;;2.78;;
7338;SDS011;33747;49.524;8.390;2023-04-03T07:28:23;3.13;;;2.13;;
7338;SDS011;33747;49.524;8.390;2023-04-03T07:30:53;5.82;;;2.88;;
7338;SDS011;33747;49.524;8.390;2023-04-03T07:33:20;4.53;;;2.70;;
7338;SDS011;33747;49.524;8.390;2023-04-03T07:35:46;5.25;;;3.03;;
7338;SDS011;33747;49.524;8.390;2023-04-03T07:38:12;3.45;;;1.90;;
7338;SDS011;33747;49.524;8.390;2023-04-03T07:40:38;8.38;;;2.75;;
7338;SDS011;33747;49.524;8.390;2023-04-03T07:43:04;5.72;;;2.72;;
7338;SDS011;33747;49.524;8.390;2023-04-03T07:45:30;5.43;;;2.22;;
7338;SDS011;33747;49.524;8.390;2023-04-03T07:47:55;8.43;;;2.40;;
7338;SDS011;33747;49.524;8.390;2023-04-03T07:50:21;4.38;;;2.45;;
7338;SDS011;33747;49.524;8.390;2023-04-03T07:52:46;3.42;;;1.90;;
7338;SDS011;33747;49.524;8.390;2023-04-03T07:55:12;4.28;;;2.35;;
7338;SDS011;33747;49.524;8.390;2023-04-03T07:57:37;4.15;;;1.85;;
7338;SDS011;33747;49.524;8.390;2023-04-03T08:00:03;8.45;;;2.20;;
7338;SDS011;33747;49.524;8.390;2023-04-03T08:02:29;9.48;;;2.33;;
7338;SDS011;33747;49.524;8.390;2023-04-03T08:04:56;7.15;;;2.45;;
7338;SDS011;33747;49.524;8.390;2023-04-03T08:07:22;5.03;;;1.92;;
7338;SDS011;33747;49.524;8.390;2023-04-03T08:09:47;5.32;;;2.13;;
7338;SDS011;33747;49.524;8.390;2023-04-03T08:12:13;3.75;;;1.70;;
7338;SDS011;33747;49.524;8.390;2023-04-03T08:14:39;3.20;;;1.90;;
7338;SDS011;33747;49.524;8.390;2023-04-03T08:17:05;6.07;;;2.03;;
7338;SDS011;33747;49.524;8.390;2023-04-03T08:19:34;7.57;;;2.30;;
7338;SDS011;33747;49.524;8.390;2023-04-03T08:21:59;2.97;;;1.88;;
7338;SDS011;33747;49.524;8.390;2023-04-03T08:24:27;3.33;;;2.20;;
7338;SDS011;33747;49.524;8.390;2023-04-03T08:26:53;6.13;;;1.92;;
7338;SDS011;33747;49.524;8.390;2023-04-03T08:29:18;2.67;;;1.85;;
7338;SDS011;33747;49.524;8.390;2023-04-03T08:31:44;4.70;;;2.28;;
7338;SDS011;33747;49.524;8.390;2023-04-03T08:34:10;3.92;;;1.95;;
7338;SDS011;33747;49.524;8.390;2023-04-03T08:36:36;6.00;;;1.80;;
7338;SDS011;33747;49.524;8.390;2023-04-03T08:39:02;5.30;;;1.50;;
7338;SDS011;33747;49.524;8.390;2023-04-03T08:41:35;3.28;;;2.15;;
7338;SDS011;33747;49.524;8.390;2023-04-03T08:49:37;4.85;;;2.03;;
7338;SDS011;33747;49.524;8.390;2023-04-03T08:52:10;5.28;;;2.05;;
7338;SDS011;33747;49.524;8.390;2023-04-03T08:54:41;8.75;;;2.40;;
7338;SDS011;33747;49.524;8.390;2023-04-03T08:57:29;4.45;;;1.90;;
7338;SDS011;33747;49.524;8.390;2023-04-03T09:00:06;4.30;;;2.28;;
7338;SDS011;33747;49.524;8.390;2023-04-03T09:05:19;6.25;;;2.40;;
7338;SDS011;33747;49.524;8.390;2023-04-03T09:07:47;4.25;;;1.50;;
7338;SDS011;33747;49.524;8.390;2023-04-03T09:10:19;3.78;;;1.63;;
7338;SDS011;33747;49.524;8.390;2023-04-03T09:12:53;5.28;;;1.75;;
7338;SDS011;33747;49.524;8.390;2023-04-03T09:15:24;2.47;;;1.60;;
7338;SDS011;33747;49.524;8.390;2023-04-03T09:18:03;4.50;;;1.70;;
7338;SDS011;33747;49.524;8.390;2023-04-03T09:20:49;5.65;;;1.95;;
7338;SDS011;33747;49.524;8.390;2023-04-03T09:23:40;3.20;;;1.63;;
7338;SDS011;33747;49.524;8.390;2023-04-03T09:26:13;4.82;;;1.88;;
7338;SDS011;33747;49.524;8.390;2023-04-03T09:28:44;3.65;;;1.60;;
7338;SDS011;33747;49.524;8.390;2023-04-03T09:33:49;5.20;;;1.50;;
7338;SDS011;33747;49.524;8.390;2023-04-03T09:39:16;6.45;;;2.13;;
7338;SDS011;33747;49.524;8.390;2023-04-03T09:44:23;3.70;;;1.20;;
7338;SDS011;33747;49.524;8.390;2023-04-03T09:46:50;4.75;;;1.30;;
7338;SDS011;33747;49.524;8.390;2023-04-03T09:49:15;11.77;;;2.90;;
7338;SDS011;33747;49.524;8.390;2023-04-03T09:51:42;7.95;;;1.60;;
7338;SDS011;33747;49.524;8.390;2023-04-03T09:56:58;6.40;;;1.50;;
7338;SDS011;33747;49.524;8.390;2023-04-03T09:59:29;6.78;;;1.90;;
7338;SDS011;33747;49.524;8.390;2023-04-03T10:01:57;6.20;;;1.90;;
7338;SDS011;33747;49.524;8.390;2023-04-03T10:04:45;3.90;;;1.40;;
7338;SDS011;33747;49.524;8.390;2023-04-03T10:07:30;5.57;;;2.40;;
7338;SDS011;33747;49.524;8.390;2023-04-03T10:10:02;2.50;;;1.20;;
7338;SDS011;33747;49.524;8.390;2023-04-03T10:12:42;3.10;;;1.70;;
7338;SDS011;33747;49.524;8.390;2023-04-03T10:15:11;6.30;;;3.22;;
7338;SDS011;33747;49.524;8.390;2023-04-03T10:17:57;4.90;;;1.92;;
7338;SDS011;33747;49.524;8.390;2023-04-03T10:23:02;12.10;;;3.58;;
7338;SDS011;33747;49.524;8.390;2023-04-03T10:25:41;5.18;;;1.30;;
7338;SDS011;33747;49.524;8.390;2023-04-03T10:28:23;4.38;;;1.70;;
7338;SDS011;33747;49.524;8.390;2023-04-03T10:30:56;7.32;;;1.30;;
7338;SDS011;33747;49.524;8.390;2023-04-03T10:36:07;2.67;;;1.73;;
7338;SDS011;33747;49.524;8.390;2023-04-03T10:38:48;7.10;;;1.70;;
7338;SDS011;33747;49.524;8.390;2023-04-03T10:47:20;3.78;;;1.27;;
7338;SDS011;33747;49.524;8.390;2023-04-03T10:55:15;2.63;;;1.23;;
7338;SDS011;33747;49.524;8.390;2023-04-03T10:57:47;1.33;;;1.10;;
7338;SDS011;33747;49.524;8.390;2023-04-03T11:00:26;5.68;;;1.33;;
7338;SDS011;33747;49.524;8.390;2023-04-03T11:02:57;3.08;;;1.25;;
7338;SDS011;33747;49.524;8.390;2023-04-03T11:05:34;5.75;;;1.40;;
7338;SDS011;33747;49.524;8.390;2023-04-03T11:08:10;2.88;;;1.02;;
7338;SDS011;33747;49.524;8.390;2023-04-03T11:10:42;1.95;;;1.30;;
7338;SDS011;33747;49.524;8.390;2023-04-03T11:13:22;2.08;;;0.90;;
7338;SDS011;33747;49.524;8.390;2023-04-03T11:15:52;3.28;;;1.33;;
7338;SDS011;33747;49.524;8.390;2023-04-03T11:18:25;5.32;;;1.15;;
7338;SDS011;33747;49.524;8.390;2023-04-03T11:21:16;3.22;;;2.20;;
7338;SDS011;33747;49.524;8.390;2023-04-03T11:23:43;5.97;;;1.75;;
7338;SDS011;33747;49.524;8.390;2023-04-03T11:26:13;3.35;;;1.90;;
7338;SDS011;33747;49.524;8.390;2023-04-03T11:28:41;3.33;;;1.55;;
7338;SDS011;33747;49.524;8.390;2023-04-03T11:31:09;1.80;;;1.00;;
7338;SDS011;33747;49.524;8.390;2023-04-03T11:33:57;3.72;;;1.70;;
7338;SDS011;33747;49.524;8.390;2023-04-03T11:36:37;5.80;;;1.35;;
7338;SDS011;33747;49.524;8.390;2023-04-03T11:44:44;6.28;;;1.65;;
7338;SDS011;33747;49.524;8.390;2023-04-03T11:47:10;4.05;;;1.27;;
7338;SDS011;33747;49.524;8.390;2023-04-03T12:06:42;2.22;;;1.20;;
7338;SDS011;33747;49.524;8.390;2023-04-03T12:08:44;3.13;;;1.58;;
7338;SDS011;33747;49.524;8.390;2023-04-03T12:21:18;2.45;;;1.67;;
7338;SDS011;33747;49.524;8.390;2023-04-03T12:23:58;8.38;;;2.17;;
7338;SDS011;33747;49.524;8.390;2023-04-03T12:26:31;2.30;;;1.75;;
7338;SDS011;33747;49.524;8.390;2023-04-03T12:29:01;5.53;;;3.67;;
7338;SDS011;33747;49.524;8.390;2023-04-03T12:31:42;5.15;;;2.97;;
7338;SDS011;33747;49.524;8.390;2023-04-03T12:34:31;5.53;;;3.10;;
7338;SDS011;33747;49.524;8.390;2023-04-03T12:45:13;1.67;;;1.38;;
7338;SDS011;33747;49.524;8.390;2023-04-03T12:47:45;4.45;;;1.83;;
7338;SDS011;33747;49.524;8.390;2023-04-03T12:50:18;3.72;;;1.92;;
7338;SDS011;33747;49.524;8.390;2023-04-03T12:53:03;4.28;;;1.48;;
7338;SDS011;33747;49.524;8.390;2023-04-03T12:55:36;2.75;;;1.40;;
7338;SDS011;33747;49.524;8.390;2023-04-03T13:00:58;4.07;;;1.65;;
7338;SDS011;33747;49.524;8.390;2023-04-03T13:03:25;3.20;;;1.38;;
7338;SDS011;33747;49.524;8.390;2023-04-03T13:05:55;3.90;;;1.95;;
7338;SDS011;33747;49.524;8.390;2023-04-03T13:08:25;6.13;;;1.38;;
7338;SDS011;33747;49.524;8.390;2023-04-03T13:13:26;1.73;;;1.30;;
7338;SDS011;33747;49.524;8.390;2023-04-03T13:15:52;2.65;;;1.20;;
7338;SDS011;33747;49.524;8.390;2023-04-03T13:18:22;2.28;;;1.30;;
7338;SDS011;33747;49.524;8.390;2023-04-03T13:20:47;2.63;;;1.95;;
7338;SDS011;33747;49.524;8.390;2023-04-03T13:23:14;1.50;;;1.40;;
7338;SDS011;33747;49.524;8.390;2023-04-03T13:25:42;3.08;;;1.55;;
7338;SDS011;33747;49.524;8.390;2023-04-03T13:28:13;3.67;;;1.85;;
7338;SDS011;33747;49.524;8.390;2023-04-03T13:30:41;4.47;;;1.73;;
7338;SDS011;33747;49.524;8.390;2023-04-03T13:33:21;3.10;;;1.40;;
7338;SDS011;33747;49.524;8.390;2023-04-03T13:35:54;3.63;;;2.03;;
7338;SDS011;33747;49.524;8.390;2023-04-03T13:38:22;4.70;;;1.70;;
7338;SDS011;33747;49.524;8.390;2023-04-03T13:40:52;2.28;;;1.25;;
7338;SDS011;33747;49.524;8.390;2023-04-03T13:43:30;4.53;;;1.65;;
7338;SDS011;33747;49.524;8.390;2023-04-03T13:48:51;2.60;;;1.60;;
7338;SDS011;33747;49.524;8.390;2023-04-03T13:51:21;7.03;;;1.60;;
7338;SDS011;33747;49.524;8.390;2023-04-03T13:53:58;4.13;;;1.60;;
7338;SDS011;33747;49.524;8.390;2023-04-03T13:56:33;3.45;;;1.38;;
7338;SDS011;33747;49.524;8.390;2023-04-03T13:59:03;3.70;;;1.50;;
7338;SDS011;33747;49.524;8.390;2023-04-03T14:04:24;7.63;;;1.73;;
7338;SDS011;33747;49.524;8.390;2023-04-03T14:06:52;5.28;;;1.38;;
7338;SDS011;33747;49.524;8.390;2023-04-03T14:09:19;6.45;;;1.80;;
7338;SDS011;33747;49.524;8.390;2023-04-03T14:11:46;4.70;;;1.40;;
7338;SDS011;33747;49.524;8.390;2023-04-03T14:14:14;2.15;;;1.02;;
7338;SDS011;33747;49.524;8.390;2023-04-03T14:16:43;1.67;;;1.38;;
7338;SDS011;33747;49.524;8.390;2023-04-03T14:19:17;1.52;;;1.33;;
7338;SDS011;33747;49.524;8.390;2023-04-03T14:21:59;2.45;;;1.52;;
7338;SDS011;33747;49.524;8.390;2023-04-03T14:24:26;2.80;;;1.42;;
7338;SDS011;33747;49.524;8.390;2023-04-03T14:26:53;2.95;;;1.48;;
7338;SDS011;33747;49.524;8.390;2023-04-03T14:29:22;2.75;;;1.40;;
7338;SDS011;33747;49.524;8.390;2023-04-03T14:31:48;2.13;;;1.55;;
7338;SDS011;33747;49.524;8.390;2023-04-03T14:34:14;2.92;;;1.50;;
7338;SDS011;33747;49.524;8.390;2023-04-03T14:36:41;4.65;;;1.80;;
7338;SDS011;33747;49.524;8.390;2023-04-03T14:39:08;2.72;;;1.70;;
7338;SDS011;33747;49.524;8.390;2023-04-03T14:41:36;7.75;;;1.30;;
7338;SDS011;33747;49.524;8.390;2023-04-03T14:44:01;3.00;;;1.63;;
7338;SDS011;33747;49.524;8.390;2023-04-03T14:46:28;3.15;;;1.45;;
7338;SDS011;33747;49.524;8.390;2023-04-03T14:48:58;2.45;;;1.80;;
7338;SDS011;33747;49.524;8.390;2023-04-03T14:51:24;3.35;;;1.60;;
7338;SDS011;33747;49.524;8.390;2023-04-03T14:53:50;2.00;;;1.30;;
7338;SDS011;33747;49.524;8.390;2023-04-03T14:56:26;2.90;;;1.60;;
7338;SDS011;33747;49.524;8.390;2023-04-03T14:59:02;2.47;;;1.40;;
7338;SDS011;33747;49.524;8.390;2023-04-03T15:01:29;2.50;;;1.70;;
7338;SDS011;33747;49.524;8.390;2023-04-03T15:03:54;4.20;;;1.35;;
7338;SDS011;33747;49.524;8.390;2023-04-03T15:06:20;3.10;;;1.52;;
7338;SDS011;33747;49.524;8.390;2023-04-03T15:08:45;1.88;;;1.30;;
7338;SDS011;33747;49.524;8.390;2023-04-03T15:11:12;3.13;;;1.38;;
7338;SDS011;33747;49.524;8.390;2023-04-03T15:13:38;1.70;;;1.30;;
7338;SDS011;33747;49.524;8.390;2023-04-03T15:16:04;2.13;;;1.20;;
7338;SDS011;33747;49.524;8.390;2023-04-03T15:18:31;2.40;;;1.63;;
7338;SDS011;33747;49.524;8.390;2023-04-03T15:21:00;2.15;;;1.95;;
7338;SDS011;33747;49.524;8.390;2023-04-03T15:23:25;1.25;;;1.15;;
7338;SDS011;33747;49.524;8.390;2023-04-03T15:25:51;3.25;;;1.55;;
7338;SDS011;33747;49.524;8.390;2023-04-03T15:28:38;1.63;;;1.08;;
7338;SDS011;33747;49.524;8.390;2023-04-03T15:31:04;3.70;;;1.45;;
7338;SDS011;33747;49.524;8.390;2023-04-03T15:33:31;2.15;;;1.20;;
7338;SDS011;33747;49.524;8.390;2023-04-03T15:35:57;6.10;;;1.65;;
7338;SDS011;33747;49.524;8.390;2023-04-03T15:38:23;2.45;;;1.63;;
7338;SDS011;33747;49.524;8.390;2023-04-03T15:40:48;3.88;;;1.40;;
7338;SDS011;33747;49.524;8.390;2023-04-03T15:43:14;3.67;;;1.70;;
7338;SDS011;33747;49.524;8.390;2023-04-03T15:45:40;2.70;;;1.70;;
7338;SDS011;33747;49.524;8.390;2023-04-03T15:48:05;3.95;;;1.63;;
7338;SDS011;33747;49.524;8.390;2023-04-03T15:50:31;7.70;;;1.30;;
7338;SDS011;33747;49.524;8.390;2023-04-03T15:52:59;5.35;;;1.23;;
7338;SDS011;33747;49.524;8.390;2023-04-03T15:55:26;3.58;;;2.03;;
7338;SDS011;33747;49.524;8.390;2023-04-03T15:57:55;1.77;;;1.30;;
7338;SDS011;33747;49.524;8.390;2023-04-03T16:00:21;1.88;;;1.33;;
7338;SDS011;33747;49.524;8.390;2023-04-03T16:02:48;8.13;;;1.58;;
7338;SDS011;33747;49.524;8.390;2023-04-03T16:05:23;3.08;;;1.23;;
7338;SDS011;33747;49.524;8.390;2023-04-03T16:07:48;1.40;;;1.05;;
7338;SDS011;33747;49.524;8.390;2023-04-03T16:10:14;4.50;;;1.55;;
7338;SDS011;33747;49.524;8.390;2023-04-03T16:12:41;2.33;;;1.83;;
7338;SDS011;33747;49.524;8.390;2023-04-03T16:15:07;1.30;;;1.20;;
7338;SDS011;33747;49.524;8.390;2023-04-03T16:17:33;3.03;;;1.35;;
7338;SDS011;33747;49.524;8.390;2023-04-03T16:19:59;2.40;;;1.42;;
7338;SDS011;33747;49.524;8.390;2023-04-03T16:22:25;4.07;;;2.00;;
7338;SDS011;33747;49.524;8.390;2023-04-03T16:24:52;3.03;;;1.65;;
7338;SDS011;33747;49.524;8.390;2023-04-03T16:27:17;1.90;;;1.45;;
7338;SDS011;33747;49.524;8.390;2023-04-03T16:29:43;7.57;;;2.60;;
7338;SDS011;33747;49.524;8.390;2023-04-03T16:32:08;4.80;;;1.95;;
7338;SDS011;33747;49.524;8.390;2023-04-03T16:34:34;1.25;;;1.05;;
7338;SDS011;33747;49.524;8.390;2023-04-03T16:36:59;3.80;;;1.10;;